Time;durP1;ratioP1;P1;durP2;ratioP2;P2;SDS_P1;SDS_P2;PMS_P1;PMS_P2;Temp;Humidity;BMP_temperature;BMP_pressure;BME280_temperature;BME280_humidity;BME280_pressure;Samples;Min_cycle;Max_cycle;Signal;HPM_P1;HPM_P2
2022/07/23 00:01:18;;;;;;;8.98;3.50;;;15.70;99.90;;;;;;5047958;28;20067;-68
2022/07/23 00:03:44;;;;;;;6.00;3.58;;;15.70;99.90;;;;;;5047949;28;20141;-68
2022/07/23 00:06:10;;;;;;;9.15;3.67;;;15.70;99.90;;;;;;5044073;28;20033;-68
2022/07/23 00:08:36;;;;;;;7.25;3.78;;;15.80;99.90;;;;;;5046681;28;20043;-69
2022/07/23 00:11:02;;;;;;;6.90;3.70;;;15.80;99.90;;;;;;5049665;28;20025;-70
2022/07/23 00:13:28;;;;;;;7.28;3.70;;;15.80;99.90;;;;;;5051515;28;20032;-68
2022/07/23 00:15:55;;;;;;;6.68;3.47;;;15.70;99.90;;;;;;5053521;28;20087;-68
2022/07/23 00:18:21;;;;;;;6.20;3.90;;;15.70;99.90;;;;;;5047527;28;20044;-69
2022/07/23 00:20:46;;;;;;;7.57;3.60;;;15.70;99.90;;;;;;5041953;28;20029;-69
2022/07/23 00:23:13;;;;;;;6.93;3.85;;;15.80;99.90;;;;;;5039380;28;20079;-69
2022/07/23 00:25:38;;;;;;;8.80;4.28;;;15.80;99.90;;;;;;5038410;28;20395;-69
2022/07/23 00:28:04;;;;;;;7.82;4.07;;;15.80;99.90;;;;;;5038595;28;20033;-69
2022/07/23 00:30:31;;;;;;;9.50;3.67;;;15.80;99.90;;;;;;5050169;28;20763;-68
2022/07/23 00:33:02;;;;;;;8.43;3.80;;;15.80;99.90;;;;;;5040959;28;20044;-69
2022/07/23 00:35:33;;;;;;;6.25;3.63;;;15.80;99.90;;;;;;5042973;28;20082;-69
2022/07/23 00:37:59;;;;;;;7.65;4.13;;;15.80;99.90;;;;;;5040818;28;20029;-69
2022/07/23 00:40:26;;;;;;;9.70;4.20;;;15.80;99.90;;;;;;5038265;28;20032;-69
2022/07/23 00:42:52;;;;;;;6.15;3.95;;;15.80;99.90;;;;;;5051699;28;20036;-69
2022/07/23 00:45:18;;;;;;;8.32;4.90;;;15.80;99.90;;;;;;5053166;28;20093;-69
2022/07/23 00:47:43;;;;;;;7.60;4.45;;;15.70;99.90;;;;;;5050478;28;20475;-68
2022/07/23 00:50:10;;;;;;;7.53;4.50;;;15.70;99.90;;;;;;5035396;28;20040;-69
2022/07/23 00:52:37;;;;;;;8.30;4.90;;;15.70;99.90;;;;;;5045421;28;20376;-69
2022/07/23 00:55:04;;;;;;;9.20;5.07;;;15.70;99.90;;;;;;5051165;28;20037;-69
2022/07/23 00:57:30;;;;;;;8.90;5.18;;;15.60;99.90;;;;;;5047868;28;20028;-69
2022/07/23 00:59:57;;;;;;;8.77;5.15;;;15.60;99.90;;;;;;5039189;28;20037;-69
2022/07/23 01:02:24;;;;;;;12.70;5.85;;;15.70;99.90;;;;;;5042961;28;20041;-69
2022/07/23 01:04:50;;;;;;;11.70;5.22;;;15.70;99.90;;;;;;5049699;28;20037;-69
2022/07/23 01:07:16;;;;;;;8.50;4.70;;;15.70;99.90;;;;;;5053107;28;20044;-69
2022/07/23 01:09:43;;;;;;;8.65;5.05;;;15.70;99.90;;;;;;5048401;28;20036;-68
2022/07/23 01:12:08;;;;;;;8.77;4.72;;;15.70;99.90;;;;;;5048322;28;20037;-69
2022/07/23 01:14:34;;;;;;;8.57;4.70;;;15.80;99.90;;;;;;5052454;28;20036;-69
2022/07/23 01:17:00;;;;;;;7.78;4.30;;;15.80;99.90;;;;;;5040553;28;20044;-68
2022/07/23 01:19:25;;;;;;;6.32;4.15;;;15.80;99.90;;;;;;5054321;28;20036;-69
2022/07/23 01:21:53;;;;;;;8.60;4.47;;;15.80;99.90;;;;;;5030903;28;20029;-69
2022/07/23 01:24:19;;;;;;;8.50;4.03;;;15.80;99.90;;;;;;5034245;28;20033;-68
2022/07/23 01:26:47;;;;;;;7.07;3.97;;;15.90;99.90;;;;;;5050416;28;20481;-68
2022/07/23 01:29:13;;;;;;;7.32;4.15;;;15.90;99.90;;;;;;5052740;28;20478;-69
2022/07/23 01:31:39;;;;;;;9.10;4.57;;;15.90;99.90;;;;;;5053843;28;20065;-68
2022/07/23 01:34:06;;;;;;;8.57;4.60;;;15.90;99.90;;;;;;5039655;28;20107;-69
2022/07/23 01:36:33;;;;;;;7.80;4.20;;;15.90;99.90;;;;;;5050585;28;20109;-68
2022/07/23 01:38:59;;;;;;;6.82;3.85;;;15.80;99.90;;;;;;5057761;28;20105;-69
2022/07/23 01:41:24;;;;;;;9.38;4.13;;;15.80;99.90;;;;;;5044560;28;20032;-69
2022/07/23 01:43:50;;;;;;;6.95;4.15;;;15.80;99.90;;;;;;5040123;28;20037;-69
2022/07/23 01:46:16;;;;;;;8.93;4.18;;;15.80;99.90;;;;;;5041283;28;20043;-69
2022/07/23 01:48:41;;;;;;;8.30;4.57;;;15.80;99.90;;;;;;5044537;28;20497;-69
2022/07/23 01:51:07;;;;;;;6.97;3.70;;;15.80;99.90;;;;;;5052183;28;20470;-69
2022/07/23 01:53:33;;;;;;;8.27;3.97;;;15.80;99.90;;;;;;5041365;28;20136;-69
2022/07/23 01:55:59;;;;;;;11.48;4.82;;;15.80;99.90;;;;;;5034271;28;20067;-69
2022/07/23 01:58:26;;;;;;;9.20;4.47;;;15.80;99.90;;;;;;5050505;28;20041;-69
2022/07/23 02:00:51;;;;;;;9.23;4.28;;;15.80;99.90;;;;;;5044272;28;20774;-69
2022/07/23 02:03:17;;;;;;;9.57;4.88;;;15.90;99.90;;;;;;5040333;28;20057;-70
2022/07/23 02:05:43;;;;;;;6.78;4.25;;;15.90;99.90;;;;;;5043235;28;20553;-69
2022/07/23 02:08:09;;;;;;;7.05;4.43;;;15.80;99.90;;;;;;5050308;28;20037;-68
2022/07/23 02:10:34;;;;;;;7.43;4.32;;;15.90;99.90;;;;;;5056106;28;20116;-69
2022/07/23 02:13:00;;;;;;;5.70;4.05;;;15.90;99.90;;;;;;5039642;28;20725;-69
2022/07/23 02:15:26;;;;;;;7.20;4.28;;;15.90;99.90;;;;;;5043857;28;20136;-69
2022/07/23 02:17:52;;;;;;;8.95;4.72;;;15.90;99.90;;;;;;5036748;28;20033;-69
2022/07/23 02:20:18;;;;;;;9.60;4.65;;;15.90;99.90;;;;;;5049398;28;20032;-70
2022/07/23 02:22:44;;;;;;;9.35;4.90;;;15.90;99.90;;;;;;5038457;28;20029;-69
2022/07/23 02:25:09;;;;;;;10.40;4.82;;;15.90;99.90;;;;;;5036695;28;20036;-69
2022/07/23 02:27:36;;;;;;;8.13;4.82;;;15.90;99.90;;;;;;5037653;28;20053;-69
2022/07/23 02:30:03;;;;;;;6.68;4.47;;;15.90;99.90;;;;;;5048108;28;20050;-69
2022/07/23 02:32:28;;;;;;;7.57;4.50;;;15.90;99.90;;;;;;5035855;28;20040;-69
2022/07/23 02:34:54;;;;;;;9.55;4.70;;;15.90;99.90;;;;;;5040915;28;20040;-68
2022/07/23 02:37:20;;;;;;;8.85;4.45;;;15.80;99.90;;;;;;5040702;28;20045;-68
2022/07/23 02:39:45;;;;;;;8.68;5.05;;;15.90;99.90;;;;;;5048115;28;20032;-69
2022/07/23 02:42:11;;;;;;;9.73;5.25;;;16.00;99.90;;;;;;5046917;28;20029;-68
2022/07/23 02:44:37;;;;;;;8.63;5.05;;;15.90;99.90;;;;;;5042900;28;20033;-69
2022/07/23 02:47:03;;;;;;;12.77;5.85;;;16.00;99.90;;;;;;5040252;28;20033;-69
2022/07/23 02:49:28;;;;;;;8.68;5.65;;;16.00;99.90;;;;;;5039805;28;20033;-69
2022/07/23 02:51:54;;;;;;;8.23;5.53;;;16.00;99.90;;;;;;5043486;28;20041;-67
2022/07/23 02:54:20;;;;;;;10.15;5.18;;;15.90;99.90;;;;;;5042352;28;20033;-68
2022/07/23 02:56:45;;;;;;;7.80;5.53;;;16.00;99.90;;;;;;5050427;28;20478;-68
2022/07/23 02:59:11;;;;;;;9.40;4.88;;;15.90;99.90;;;;;;5049065;28;20029;-68
2022/07/23 03:01:37;;;;;;;9.88;4.88;;;15.90;99.90;;;;;;5035757;28;20029;-68
2022/07/23 03:04:03;;;;;;;9.57;5.28;;;15.90;99.90;;;;;;5034944;28;20037;-68
2022/07/23 03:06:29;;;;;;;9.73;5.40;;;15.90;99.90;;;;;;5050953;28;20036;-68
2022/07/23 03:08:54;;;;;;;10.00;5.85;;;15.90;99.90;;;;;;5042599;28;20037;-69
2022/07/23 03:11:20;;;;;;;8.75;5.43;;;15.90;99.90;;;;;;5048553;28;20061;-68
2022/07/23 03:13:46;;;;;;;8.77;5.38;;;15.90;99.90;;;;;;5041970;28;20376;-68
2022/07/23 03:16:11;;;;;;;9.52;4.85;;;15.90;99.90;;;;;;5033916;28;20391;-69
2022/07/23 03:18:37;;;;;;;10.18;5.30;;;15.90;99.90;;;;;;5032481;28;20079;-69
2022/07/23 03:21:03;;;;;;;9.55;5.13;;;15.80;99.90;;;;;;5041504;28;20033;-68
2022/07/23 03:23:28;;;;;;;8.20;4.68;;;15.90;99.90;;;;;;5029932;28;20376;-68
2022/07/23 03:25:54;;;;;;;10.05;5.38;;;15.90;99.90;;;;;;5032146;28;20057;-68
2022/07/23 03:28:20;;;;;;;9.70;4.80;;;15.90;99.90;;;;;;5030644;28;20044;-68
2022/07/23 03:30:46;;;;;;;8.57;5.10;;;15.90;99.90;;;;;;5038584;28;20041;-69
2022/07/23 03:33:13;;;;;;;10.50;4.78;;;15.90;99.90;;;;;;5037672;28;20030;-69
2022/07/23 03:35:39;;;;;;;8.27;4.45;;;15.90;99.90;;;;;;5035328;28;20114;-69
2022/07/23 03:38:05;;;;;;;7.82;4.53;;;16.00;99.90;;;;;;5040152;28;20038;-69
2022/07/23 03:40:30;;;;;;;8.45;5.50;;;16.00;99.90;;;;;;5041043;28;20482;-70
2022/07/23 03:42:56;;;;;;;10.07;5.05;;;16.00;99.90;;;;;;5029260;28;20633;-69
2022/07/23 03:45:22;;;;;;;8.32;4.53;;;16.00;99.90;;;;;;5030310;28;20098;-69
2022/07/23 03:47:47;;;;;;;9.32;5.03;;;16.00;99.90;;;;;;5032944;28;20518;-69
2022/07/23 03:50:13;;;;;;;9.25;4.93;;;16.10;99.90;;;;;;5036619;28;20101;-69
2022/07/23 03:52:39;;;;;;;7.50;4.40;;;16.00;99.90;;;;;;5039159;28;20470;-69
2022/07/23 03:55:05;;;;;;;10.38;5.15;;;16.00;99.90;;;;;;5035809;28;20035;-69
2022/07/23 03:57:31;;;;;;;10.07;5.50;;;16.00;99.90;;;;;;5028629;28;20049;-69
2022/07/23 03:59:57;;;;;;;11.10;5.05;;;16.00;99.90;;;;;;5029437;28;20106;-69
2022/07/23 04:02:22;;;;;;;10.70;5.30;;;16.00;99.90;;;;;;5037765;28;20029;-68
2022/07/23 04:04:48;;;;;;;10.15;4.78;;;15.90;99.90;;;;;;5035399;28;20033;-69
2022/07/23 04:07:14;;;;;;;9.40;5.15;;;15.90;99.90;;;;;;5036557;28;20587;-69
2022/07/23 04:09:40;;;;;;;8.68;4.93;;;15.90;99.90;;;;;;5035064;28;20037;-69
2022/07/23 04:12:07;;;;;;;9.70;4.60;;;15.90;99.90;;;;;;5038221;28;20025;-69
2022/07/23 04:14:33;;;;;;;7.63;4.43;;;15.80;99.90;;;;;;5043963;28;20036;-68
2022/07/23 04:16:59;;;;;;;8.10;4.90;;;15.80;99.90;;;;;;5036751;28;20037;-69
2022/07/23 04:19:25;;;;;;;8.90;4.50;;;15.80;99.90;;;;;;5038041;28;20418;-69
2022/07/23 04:21:51;;;;;;;9.98;5.03;;;15.70;99.90;;;;;;5040107;28;20390;-69
2022/07/23 04:24:16;;;;;;;9.15;5.15;;;15.60;99.90;;;;;;5044139;28;20076;-69
2022/07/23 04:26:42;;;;;;;9.80;5.70;;;15.60;99.90;;;;;;5048913;28;20060;-69
2022/07/23 04:29:07;;;;;;;6.63;5.03;;;15.50;99.90;;;;;;5034449;28;20040;-69
2022/07/23 04:31:33;;;;;;;8.82;5.85;;;15.50;99.90;;;;;;5034120;28;20067;-69
2022/07/23 04:33:59;;;;;;;9.75;6.03;;;15.50;99.90;;;;;;5040730;28;20033;-69
2022/07/23 04:36:24;;;;;;;10.98;5.85;;;15.50;99.90;;;;;;5036075;28;20041;-70
2022/07/23 04:38:50;;;;;;;9.60;5.45;;;15.50;99.90;;;;;;5042690;28;20033;-69
2022/07/23 04:41:16;;;;;;;8.60;5.15;;;15.40;99.90;;;;;;5034601;28;20455;-68
2022/07/23 04:43:41;;;;;;;10.60;5.07;;;15.40;99.90;;;;;;5034428;28;20052;-68
2022/07/23 04:46:07;;;;;;;8.02;5.40;;;15.40;99.90;;;;;;5040955;28;20045;-69
2022/07/23 04:48:33;;;;;;;8.18;5.70;;;15.40;99.90;;;;;;5030864;28;20399;-68
2022/07/23 04:50:58;;;;;;;9.10;5.93;;;15.40;99.90;;;;;;5030786;28;20033;-68
2022/07/23 04:53:24;;;;;;;7.70;5.47;;;15.40;99.90;;;;;;5030378;28;20034;-68
2022/07/23 04:55:50;;;;;;;7.60;5.63;;;15.40;99.90;;;;;;5042883;28;20391;-69
2022/07/23 04:58:15;;;;;;;10.65;5.95;;;15.40;99.90;;;;;;5040496;28;20504;-69
2022/07/23 05:00:41;;;;;;;9.63;5.75;;;15.40;99.90;;;;;;5038342;28;20033;-68
2022/07/23 05:03:08;;;;;;;8.75;5.55;;;15.40;99.90;;;;;;5044522;28;20041;-69
2022/07/23 05:05:33;;;;;;;10.43;6.28;;;15.40;99.90;;;;;;5035706;28;20036;-69
2022/07/23 05:07:59;;;;;;;9.00;5.13;;;15.50;99.90;;;;;;5035465;28;20033;-69
2022/07/23 05:10:24;;;;;;;9.57;5.72;;;15.40;99.90;;;;;;5033139;28;20447;-68
2022/07/23 05:12:50;;;;;;;10.68;6.03;;;15.40;99.90;;;;;;5034170;28;20056;-69
2022/07/23 05:15:16;;;;;;;8.45;5.88;;;15.40;99.90;;;;;;5034100;28;20647;-69
2022/07/23 05:17:41;;;;;;;11.68;6.45;;;15.40;99.90;;;;;;5035396;28;20087;-69
2022/07/23 05:20:07;;;;;;;9.98;6.18;;;15.40;99.90;;;;;;5036417;28;20029;-69
2022/07/23 05:22:33;;;;;;;9.13;6.15;;;15.40;99.90;;;;;;5028941;28;20057;-69
2022/07/23 05:24:59;;;;;;;9.65;5.95;;;15.40;99.90;;;;;;5029889;28;20060;-69
2022/07/23 05:27:24;;;;;;;9.57;6.30;;;15.40;99.90;;;;;;5050096;28;20526;-69
2022/07/23 05:29:50;;;;;;;12.77;6.95;;;15.40;99.90;;;;;;5042473;28;20032;-68
2022/07/23 05:32:16;;;;;;;11.07;6.30;;;15.40;99.90;;;;;;5032368;28;20049;-69
2022/07/23 05:34:41;;;;;;;7.30;5.43;;;15.40;99.90;;;;;;5042087;28;20029;-69
2022/07/23 05:37:07;;;;;;;8.30;5.60;;;15.50;99.90;;;;;;5056880;28;20071;-69
2022/07/23 05:39:33;;;;;;;12.02;6.60;;;15.50;99.90;;;;;;5042374;28;20032;-69
2022/07/23 05:41:58;;;;;;;9.45;6.60;;;15.60;99.90;;;;;;5048670;28;20033;-69
2022/07/23 05:44:24;;;;;;;9.32;6.57;;;15.60;99.90;;;;;;5048703;28;20048;-68
2022/07/23 05:46:50;;;;;;;10.02;6.13;;;15.60;99.90;;;;;;5049618;28;20131;-69
2022/07/23 05:49:15;;;;;;;8.77;6.10;;;15.60;99.90;;;;;;5045207;28;20119;-69
2022/07/23 05:51:41;;;;;;;9.27;5.97;;;15.60;99.90;;;;;;5048363;28;20065;-68
2022/07/23 05:54:07;;;;;;;9.50;6.68;;;15.70;99.90;;;;;;5035354;28;20037;-68
2022/07/23 05:56:33;;;;;;;10.70;6.90;;;15.80;99.90;;;;;;5049772;28;20120;-68
2022/07/23 05:58:58;;;;;;;9.52;6.18;;;15.80;99.90;;;;;;5041032;28;20029;-70
2022/07/23 06:01:24;;;;;;;10.02;5.97;;;15.90;99.90;;;;;;5040593;28;20095;-69
2022/07/23 06:03:50;;;;;;;9.88;6.72;;;15.90;99.90;;;;;;5040223;28;20746;-70
2022/07/23 06:06:15;;;;;;;9.88;6.10;;;16.00;99.90;;;;;;5046168;28;20040;-69
2022/07/23 06:08:41;;;;;;;9.43;5.70;;;16.00;99.90;;;;;;5040295;28;20026;-70
2022/07/23 06:11:07;;;;;;;14.55;5.85;;;16.10;99.90;;;;;;5040387;28;20155;-68
2022/07/23 06:13:32;;;;;;;9.32;5.78;;;16.20;99.90;;;;;;5045578;28;20059;-69
2022/07/23 06:15:59;;;;;;;10.25;6.38;;;16.20;99.90;;;;;;5039719;28;20037;-69
2022/07/23 06:18:24;;;;;;;9.20;5.55;;;16.20;99.90;;;;;;5038751;28;20039;-68
2022/07/23 06:20:50;;;;;;;9.13;5.22;;;16.30;99.90;;;;;;5042806;28;20032;-69
2022/07/23 06:23:16;;;;;;;9.48;5.18;;;16.30;99.90;;;;;;5046006;28;20035;-69
2022/07/23 06:25:41;;;;;;;10.25;5.40;;;16.30;99.90;;;;;;5042417;28;20025;-69
2022/07/23 06:28:07;;;;;;;10.60;5.57;;;16.40;99.90;;;;;;5045765;28;20037;-69
2022/07/23 06:30:33;;;;;;;10.88;5.88;;;16.50;99.90;;;;;;5047494;28;20033;-69
2022/07/23 06:32:58;;;;;;;11.45;5.95;;;16.50;99.90;;;;;;5052873;28;20032;-69
2022/07/23 06:35:24;;;;;;;8.35;4.72;;;16.60;99.90;;;;;;5045543;28;20040;-68
2022/07/23 06:37:50;;;;;;;9.05;5.30;;;16.60;99.90;;;;;;5051680;28;20052;-69
2022/07/23 06:40:16;;;;;;;8.80;5.28;;;16.80;99.90;;;;;;5060397;28;20751;-68
2022/07/23 06:42:41;;;;;;;12.85;5.78;;;16.80;99.90;;;;;;5059775;28;20024;-69
2022/07/23 06:45:07;;;;;;;10.23;5.75;;;16.90;99.90;;;;;;5051020;28;20031;-69
2022/07/23 06:47:33;;;;;;;9.10;5.20;;;16.90;99.90;;;;;;5051789;28;20041;-68
2022/07/23 06:49:59;;;;;;;8.23;4.50;;;17.00;99.90;;;;;;5047688;28;20484;-68
2022/07/23 06:52:25;;;;;;;8.55;5.75;;;17.10;99.90;;;;;;5045455;28;20029;-69
2022/07/23 06:54:51;;;;;;;10.35;5.60;;;17.20;99.90;;;;;;5047806;28;20033;-68
2022/07/23 06:57:17;;;;;;;6.78;4.85;;;17.30;99.90;;;;;;5055957;28;20025;-70
2022/07/23 06:59:43;;;;;;;10.45;4.80;;;17.40;99.90;;;;;;5039962;28;20039;-68
2022/07/23 07:02:08;;;;;;;8.38;4.90;;;17.60;99.90;;;;;;5049200;28;20029;-69
2022/07/23 07:04:34;;;;;;;9.23;5.53;;;17.60;99.90;;;;;;5037180;28;20036;-70
2022/07/23 07:07:00;;;;;;;8.55;4.95;;;17.70;99.90;;;;;;5044594;28;20040;-70
2022/07/23 07:09:26;;;;;;;7.63;5.10;;;17.90;99.90;;;;;;5047008;28;20025;-68
2022/07/23 07:11:52;;;;;;;9.90;5.25;;;17.90;99.90;;;;;;5045478;28;20052;-69
2022/07/23 07:14:17;;;;;;;10.32;5.20;;;18.00;99.90;;;;;;5046650;28;20033;-69
2022/07/23 07:16:43;;;;;;;8.70;4.90;;;18.10;99.90;;;;;;5044031;28;20523;-68
2022/07/23 07:19:09;;;;;;;9.25;5.20;;;18.20;99.90;;;;;;5039060;28;20040;-68
2022/07/23 07:21:34;;;;;;;6.85;4.45;;;18.30;99.90;;;;;;5039942;28;20040;-68
2022/07/23 07:24:01;;;;;;;7.35;4.40;;;18.50;99.90;;;;;;5043268;28;20037;-69
2022/07/23 07:26:27;;;;;;;8.02;4.60;;;18.60;99.90;;;;;;5038791;28;20049;-68
2022/07/23 07:28:53;;;;;;;8.50;4.45;;;18.70;99.90;;;;;;5042357;28;20371;-68
2022/07/23 07:31:19;;;;;;;8.35;4.03;;;18.80;99.90;;;;;;5042483;28;20115;-69
2022/07/23 07:33:44;;;;;;;5.80;3.92;;;19.00;99.90;;;;;;5041825;28;20437;-68
2022/07/23 07:36:10;;;;;;;7.05;4.03;;;19.20;99.90;;;;;;5038192;28;20084;-68
2022/07/23 07:38:36;;;;;;;7.15;3.58;;;19.30;99.90;;;;;;5037083;28;20065;-69
2022/07/23 07:41:01;;;;;;;6.53;3.30;;;19.40;99.90;;;;;;5044885;28;20036;-70
2022/07/23 07:43:27;;;;;;;7.43;3.65;;;19.50;99.90;;;;;;5043878;28;20444;-69
2022/07/23 07:45:53;;;;;;;7.88;3.40;;;19.70;99.90;;;;;;5044616;28;20756;-69
2022/07/23 07:48:18;;;;;;;7.50;3.13;;;19.80;99.90;;;;;;5048016;28;20466;-69
2022/07/23 07:50:44;;;;;;;7.68;3.22;;;19.90;99.90;;;;;;5045137;28;20045;-70
2022/07/23 07:53:10;;;;;;;6.95;2.88;;;20.00;99.90;;;;;;5047298;28;20586;-69
2022/07/23 07:55:36;;;;;;;9.75;3.28;;;20.10;99.90;;;;;;5046918;28;20040;-68
2022/07/23 07:58:02;;;;;;;7.25;3.55;;;20.20;99.90;;;;;;5050170;28;20905;-69
2022/07/23 08:00:28;;;;;;;6.72;2.80;;;20.30;99.90;;;;;;5050248;28;20171;-69
2022/07/23 08:02:54;;;;;;;7.28;2.80;;;20.40;99.90;;;;;;5045098;28;20053;-69
2022/07/23 08:05:26;;;;;;;6.32;2.58;;;20.60;99.90;;;;;;5046899;28;20041;-69
2022/07/23 08:07:52;;;;;;;6.80;3.38;;;20.70;99.90;;;;;;5046449;28;20040;-69
2022/07/23 08:10:18;;;;;;;7.68;3.08;;;20.90;99.90;;;;;;5045090;28;20394;-69
2022/07/23 08:12:47;;;;;;;5.95;3.00;;;20.90;99.90;;;;;;5044079;28;20029;-69
2022/07/23 08:15:17;;;;;;;7.60;3.58;;;21.00;99.90;;;;;;5044017;28;20394;-68
2022/07/23 08:17:45;;;;;;;11.98;3.75;;;21.10;99.90;;;;;;5041476;28;20033;-68
2022/07/23 08:20:12;;;;;;;6.85;3.05;;;21.10;99.90;;;;;;5047268;28;20078;-70
2022/07/23 08:23:05;;;;;;;8.55;3.47;;;21.00;99.90;;;;;;5043958;28;20488;-69
2022/07/23 08:25:33;;;;;;;7.00;3.00;;;21.00;99.90;;;;;;5032488;28;20728;-68
2022/07/23 08:28:02;;;;;;;8.23;3.17;;;21.10;99.90;;;;;;5028365;28;20745;-68
2022/07/23 08:30:29;;;;;;;7.82;2.92;;;21.20;99.90;;;;;;5026975;28;20052;-68
2022/07/23 08:32:57;;;;;;;8.35;3.42;;;21.30;99.90;;;;;;5046232;28;20033;-69
2022/07/23 08:35:27;;;;;;;7.28;3.08;;;21.40;99.90;;;;;;5030145;28;20041;-69
2022/07/23 08:37:52;;;;;;;;;;;21.30;99.90;;;;;;5048186;28;20033;-69
2022/07/23 08:40:19;;;;;;;8.38;3.25;;;21.30;99.90;;;;;;5037899;28;19912;-69
2022/07/23 08:42:48;;;;;;;8.75;3.20;;;21.30;99.90;;;;;;5048147;28;20028;-69
2022/07/23 08:45:17;;;;;;;7.95;3.42;;;21.50;99.90;;;;;;5045579;28;20036;-69
2022/07/23 08:47:43;;;;;;;8.35;3.30;;;21.50;99.90;;;;;;5031664;28;20033;-68
2022/07/23 08:50:10;;;;;;;7.90;3.40;;;21.40;99.90;;;;;;5044272;28;20375;-69
2022/07/23 08:52:37;;;;;;;9.38;3.55;;;21.40;99.90;;;;;;5047813;28;20040;-69
2022/07/23 08:55:04;;;;;;;9.25;3.28;;;21.20;99.90;;;;;;5049462;28;20603;-69
2022/07/23 08:57:29;;;;;;;9.13;3.60;;;21.20;99.90;;;;;;5033190;28;20045;-69
2022/07/23 08:59:56;;;;;;;7.75;3.88;;;21.30;99.90;;;;;;5045789;28;20621;-69
2022/07/23 09:02:21;;;;;;;8.43;3.42;;;21.60;99.90;;;;;;5041192;28;20037;-68
2022/07/23 09:04:47;;;;;;;8.77;3.63;;;21.80;99.20;;;;;;5041727;28;20021;-69
2022/07/23 09:07:13;;;;;;;8.35;3.30;;;21.90;99.10;;;;;;5045598;28;20558;-68
2022/07/23 09:09:39;;;;;;;9.80;4.40;;;21.80;99.40;;;;;;5048582;28;20161;-68
2022/07/23 09:12:07;;;;;;;13.73;4.50;;;21.70;99.90;;;;;;5044885;28;20049;-70
2022/07/23 09:14:43;;;;;;;9.93;3.83;;;21.60;99.90;;;;;;5024914;28;20033;-68
2022/07/23 09:17:13;;;;;;;9.98;4.18;;;21.60;99.90;;;;;;5041500;28;20029;-69
2022/07/23 09:19:40;;;;;;;8.77;4.25;;;21.50;99.90;;;;;;5041131;28;20033;-69
2022/07/23 09:22:28;;;;;;;8.45;3.50;;;21.60;99.90;;;;;;5027795;28;20128;-68
2022/07/23 09:25:14;;;;;;;7.85;4.07;;;21.60;99.90;;;;;;5030846;28;20463;-69
2022/07/23 09:28:02;;;;;;;7.95;3.13;;;21.60;99.50;;;;;;5033051;28;20052;-69
2022/07/23 09:30:30;;;;;;;8.38;3.55;;;21.60;99.50;;;;;;5034673;28;20037;-69
2022/07/23 09:33:11;;;;;;;7.88;3.00;;;21.70;99.40;;;;;;5042806;28;20040;-70
2022/07/23 09:35:54;;;;;;;7.88;3.10;;;22.00;99.80;;;;;;5038240;28;20082;-70
2022/07/23 09:38:22;;;;;;;8.63;3.50;;;22.30;98.90;;;;;;5042539;28;20414;-69
2022/07/23 09:41:09;;;;;;;7.47;3.40;;;22.20;97.90;;;;;;5046454;28;20550;-69
2022/07/23 09:43:35;;;;;;;7.25;2.80;;;22.00;98.50;;;;;;5040417;28;20074;-69
2022/07/23 09:46:24;;;;;;;7.60;3.28;;;22.20;98.60;;;;;;5047241;28;20037;-70
2022/07/23 09:48:51;;;;;;;8.00;2.80;;;22.30;98.50;;;;;;5045910;28;20726;-69
2022/07/23 09:51:22;;;;;;;11.00;3.45;;;22.50;98.60;;;;;;5045885;28;20029;-68
2022/07/23 09:53:47;;;;;;;8.48;3.10;;;22.60;97.80;;;;;;5044358;28;20024;-70
2022/07/23 09:56:15;;;;;;;10.55;3.03;;;22.70;97.90;;;;;;5040651;28;20029;-68
2022/07/23 09:58:52;;;;;;;9.68;2.55;;;22.80;97.10;;;;;;5039850;28;20033;-68
2022/07/23 10:01:18;;;;;;;6.63;2.47;;;22.80;96.00;;;;;;5037494;28;20031;-69
2022/07/23 10:03:44;;;;;;;7.05;2.70;;;22.80;95.00;;;;;;5038074;28;20033;-69
2022/07/23 10:06:12;;;;;;;6.90;2.30;;;22.90;95.20;;;;;;5047168;28;20497;-70
2022/07/23 10:08:42;;;;;;;8.23;2.63;;;22.90;95.50;;;;;;5045901;28;20474;-69
2022/07/23 10:11:10;;;;;;;7.38;2.60;;;23.00;94.10;;;;;;5043175;28;20047;-68
2022/07/23 10:13:56;;;;;;;7.68;2.45;;;23.00;94.50;;;;;;5043713;28;20041;-70
2022/07/23 10:16:22;;;;;;;8.52;2.90;;;23.10;94.10;;;;;;5045724;28;20858;-68
2022/07/23 10:18:48;;;;;;;6.47;2.30;;;23.00;94.60;;;;;;5043832;28;20071;-68
2022/07/23 10:21:22;;;;;;;6.97;2.45;;;23.10;94.80;;;;;;5038476;28;20526;-69
2022/07/23 10:23:59;;;;;;;9.02;2.58;;;23.10;94.50;;;;;;5042357;28;20052;-70
2022/07/23 10:26:41;;;;;;;6.68;2.10;;;23.30;93.40;;;;;;5035604;28;20124;-70
2022/07/23 10:29:46;;;;;;;7.05;2.30;;;23.30;93.00;;;;;;5034828;28;20064;-69
2022/07/23 10:32:31;;;;;;;4.60;1.85;;;23.50;93.50;;;;;;5038010;28;20083;-70
2022/07/23 10:35:02;;;;;;;7.30;2.83;;;23.60;93.90;;;;;;5042185;28;20029;-70
2022/07/23 10:37:28;;;;;;;5.63;2.30;;;23.80;92.50;;;;;;5039081;28;20037;-69
2022/07/23 10:40:30;;;;;;;6.03;2.20;;;23.90;91.50;;;;;;5036187;28;20044;-70
2022/07/23 10:43:00;;;;;;;7.53;2.00;;;23.80;91.40;;;;;;5035412;28;20033;-69
2022/07/23 10:45:34;;;;;;;6.15;2.05;;;23.70;91.40;;;;;;5040333;28;20032;-68
2022/07/23 10:48:22;;;;;;;5.97;2.30;;;23.80;90.80;;;;;;5046135;28;20560;-70
2022/07/23 10:51:13;;;;;;;6.22;2.30;;;23.80;90.40;;;;;;5037629;28;20028;-69
2022/07/23 10:53:51;;;;;;;4.95;1.88;;;23.70;91.30;;;;;;5037674;28;20399;-70
2022/07/23 10:56:55;;;;;;;5.82;2.10;;;23.70;91.10;;;;;;5037196;28;20489;-70
2022/07/23 10:59:21;;;;;;;5.38;2.00;;;23.80;91.10;;;;;;5024094;28;20049;-70
2022/07/23 11:01:47;;;;;;;7.57;2.20;;;23.90;90.50;;;;;;5034130;28;20046;-69
2022/07/23 11:04:13;;;;;;;6.28;1.95;;;24.00;90.00;;;;;;5037807;28;20056;-69
2022/07/23 11:06:48;;;;;;;4.78;1.83;;;24.10;90.60;;;;;;5035572;28;20383;-70
2022/07/23 11:09:41;;;;;;;6.13;2.42;;;24.60;88.50;;;;;;5038197;28;20032;-70
2022/07/23 11:12:12;;;;;;;6.93;2.10;;;25.00;89.70;;;;;;5034497;28;20060;-70
2022/07/23 11:15:05;;;;;;;7.68;2.28;;;24.90;89.70;;;;;;5040436;28;20530;-69
2022/07/23 11:17:51;;;;;;;6.97;2.08;;;24.80;87.70;;;;;;5031151;28;20053;-70
2022/07/23 11:20:22;;;;;;;5.35;1.98;;;24.60;88.00;;;;;;5028545;28;20123;-69
2022/07/23 11:22:51;;;;;;;6.07;1.85;;;24.40;88.10;;;;;;5040231;28;20112;-69
2022/07/23 11:25:23;;;;;;;6.70;1.90;;;24.50;90.30;;;;;;5045435;28;20106;-70
2022/07/23 11:27:52;;;;;;;7.57;2.08;;;24.70;86.30;;;;;;5043563;28;20825;-71
2022/07/23 11:30:26;;;;;;;4.55;1.98;;;25.20;84.90;;;;;;5038980;28;20028;-69
2022/07/23 11:33:12;;;;;;;7.05;2.03;;;26.00;79.80;;;;;;5042916;28;20478;-69
2022/07/23 11:35:40;;;;;;;7.13;2.05;;;26.00;77.80;;;;;;5036024;28;20124;-70
2022/07/23 11:38:08;;;;;;;8.20;2.03;;;26.00;73.20;;;;;;5039308;28;20095;-68
2022/07/23 11:40:34;;;;;;;4.57;2.25;;;25.70;73.90;;;;;;5042668;28;20094;-69
2022/07/23 11:43:02;;;;;;;5.55;2.17;;;25.50;78.00;;;;;;5043459;28;20036;-70
2022/07/23 11:45:34;;;;;;;6.15;2.03;;;25.10;77.70;;;;;;5047301;28;20032;-70
2022/07/23 11:48:00;;;;;;;6.75;1.90;;;24.80;84.20;;;;;;5048035;28;20048;-70
2022/07/23 11:50:26;;;;;;;7.47;2.20;;;24.70;81.50;;;;;;5034426;28;20034;-70
2022/07/23 11:52:53;;;;;;;5.72;2.15;;;24.90;86.70;;;;;;5039623;28;20083;-69
2022/07/23 11:55:19;;;;;;;9.32;2.45;;;25.00;88.80;;;;;;5039316;28;20044;-70
2022/07/23 11:57:45;;;;;;;7.35;2.15;;;25.10;86.90;;;;;;5039604;28;20037;-70
2022/07/23 12:00:13;;;;;;;5.35;1.80;;;25.20;82.20;;;;;;5041561;28;20080;-69
2022/07/23 12:02:46;;;;;;;6.10;2.08;;;24.90;83.40;;;;;;5039700;28;20656;-70
2022/07/23 12:05:24;;;;;;;6.60;2.33;;;24.70;86.40;;;;;;5048542;28;20090;-70
2022/07/23 12:07:51;;;;;;;7.43;2.53;;;24.50;85.20;;;;;;5048875;28;20040;-70
2022/07/23 12:10:18;;;;;;;7.50;2.53;;;24.10;87.70;;;;;;5049463;28;20041;-69
2022/07/23 12:12:56;;;;;;;8.23;2.10;;;24.00;90.00;;;;;;5049709;28;20037;-70
2022/07/23 12:15:34;;;;;;;9.93;2.20;;;24.00;91.00;;;;;;5051092;28;20044;-69
2022/07/23 12:18:01;;;;;;;6.32;1.88;;;24.00;89.80;;;;;;5049529;28;20049;-71
2022/07/23 12:20:32;;;;;;;5.55;1.80;;;24.10;89.20;;;;;;5049491;28;20045;-69
2022/07/23 12:23:01;;;;;;;4.38;1.60;;;24.20;89.50;;;;;;5050841;28;20037;-69
2022/07/23 12:25:32;;;;;;;3.00;1.20;;;24.30;87.30;;;;;;5049576;28;20029;-70
2022/07/23 12:28:02;;;;;;;6.80;1.85;;;24.40;79.50;;;;;;5050452;28;20186;-69
2022/07/23 12:30:33;;;;;;;6.75;1.75;;;24.50;85.30;;;;;;5050952;28;20053;-70
2022/07/23 12:32:59;;;;;;;6.85;1.70;;;24.70;81.00;;;;;;5050929;28;20021;-68
2022/07/23 12:35:44;;;;;;;5.70;1.70;;;24.70;80.80;;;;;;5050917;28;20025;-68
2022/07/23 12:38:16;;;;;;;4.05;1.60;;;24.80;81.10;;;;;;5049230;28;20131;-68
2022/07/23 12:40:59;;;;;;;6.28;1.95;;;24.70;80.60;;;;;;5050631;28;20033;-68
2022/07/23 12:43:31;;;;;;;5.07;1.67;;;24.70;77.70;;;;;;5050754;28;20110;-68
2022/07/23 12:46:10;;;;;;;4.10;1.40;;;24.80;80.80;;;;;;5050344;28;20036;-71
2022/07/23 12:48:39;;;;;;;5.88;1.88;;;24.90;79.20;;;;;;5050849;28;20137;-69
2022/07/23 12:51:14;;;;;;;3.80;1.55;;;24.90;76.70;;;;;;5050652;28;20029;-69